createdAt,value
2018-09-12T00:01:57.703Z,100612.86
2018-09-12T00:07:01.187Z,100612.00
2018-09-12T00:12:04.627Z,100621.36
2018-09-12T00:17:08.089Z,100615.08
2018-09-12T00:22:11.520Z,100617.07
2018-09-12T00:27:14.979Z,100614.45
2018-09-12T00:32:18.443Z,100610.76
2018-09-12T00:37:21.917Z,100609.89
2018-09-12T00:42:25.386Z,100610.89
2018-09-12T00:47:28.902Z,100607.18
2018-09-12T00:52:32.368Z,100606.55
2018-09-12T00:57:35.876Z,100591.89
2018-09-12T01:02:39.457Z,100595.22
2018-09-12T01:07:42.938Z,100583.27
2018-09-12T01:12:46.383Z,100589.93
2018-09-12T01:17:50.458Z,100597.30
2018-09-12T01:22:53.912Z,100580.31
2018-09-12T01:27:58.611Z,100575.75
2018-09-12T01:33:02.072Z,100579.32
2018-09-12T01:38:05.636Z,100567.86
2018-09-12T01:43:09.175Z,100579.94
2018-09-12T01:48:12.653Z,100577.09
2018-09-12T01:53:16.337Z,100583.49
2018-09-12T01:58:19.806Z,100579.52
2018-09-12T02:03:23.306Z,100580.64
2018-09-12T02:08:26.784Z,100576.34
2018-09-12T02:13:30.234Z,100570.66
2018-09-12T02:18:33.698Z,100582.84
2018-09-12T02:23:37.194Z,100586.27
2018-09-12T02:28:40.664Z,100587.38
2018-09-12T02:33:44.122Z,100577.55
2018-09-12T02:38:47.664Z,100571.38
2018-09-12T02:43:51.256Z,100569.16
2018-09-12T02:48:54.700Z,100573.47
2018-09-12T02:53:58.143Z,100564.50
2018-09-12T02:59:01.570Z,100565.85
2018-09-12T03:04:05.049Z,100563.73
2018-09-12T03:09:09.492Z,100562.14
2018-09-12T03:14:14.287Z,100555.02
2018-09-12T03:19:17.719Z,100554.65
2018-09-12T03:24:21.172Z,100544.78
2018-09-12T03:29:24.611Z,100545.27
2018-09-12T03:34:28.141Z,100536.06
2018-09-12T03:39:31.588Z,100545.16
2018-09-12T03:44:35.109Z,100539.21
2018-09-12T03:49:38.575Z,100537.36
2018-09-12T03:54:42.059Z,100538.81
2018-09-12T03:59:45.511Z,100537.63
2018-09-12T04:04:48.964Z,100536.85
2018-09-12T04:09:52.411Z,100544.56
2018-09-12T04:14:55.848Z,100543.19
2018-09-12T04:19:59.291Z,100548.72
2018-09-12T04:25:02.780Z,100539.10
2018-09-12T04:30:07.102Z,100544.14
2018-09-12T04:35:10.549Z,100542.42
2018-09-12T04:40:14.026Z,100548.94
2018-09-12T04:45:17.473Z,100543.62
2018-09-12T04:50:20.926Z,100554.06
2018-09-12T04:55:24.384Z,100562.30
2018-09-12T05:00:27.850Z,100559.72
2018-09-12T05:05:31.311Z,100556.61
2018-09-12T05:10:34.750Z,100559.44
2018-09-12T05:15:38.194Z,100554.52
2018-09-12T05:20:41.639Z,100554.65
2018-09-12T05:25:45.080Z,100558.20
2018-09-12T05:30:48.529Z,100543.34
2018-09-12T05:35:51.984Z,100532.19
2018-09-12T05:40:55.435Z,100543.34
2018-09-12T05:45:58.900Z,100531.19
2018-09-12T05:51:02.365Z,100536.09
2018-09-12T05:56:05.817Z,100528.85
2018-09-12T06:01:09.283Z,100522.09
2018-09-12T06:06:12.747Z,100517.55
2018-09-12T06:11:16.215Z,100517.06
2018-09-12T06:16:19.654Z,100524.18
2018-09-12T06:21:23.208Z,100533.55
2018-09-12T06:26:26.644Z,100527.28
2018-09-12T06:31:30.098Z,100527.16
2018-09-12T06:36:33.544Z,100530.60
2018-09-12T06:41:36.999Z,100526.05
2018-09-12T06:46:40.458Z,100532.34
2018-09-12T06:51:43.899Z,100525.09
2018-09-12T06:56:47.399Z,100533.11
2018-09-12T07:01:50.904Z,100529.39
2018-09-12T07:06:55.903Z,100527.63
2018-09-12T07:11:59.406Z,100529.91
2018-09-12T07:17:02.872Z,100524.64
2018-09-12T07:22:06.564Z,100528.97
2018-09-12T07:27:10.007Z,100530.69
2018-09-12T07:32:13.496Z,100536.80
2018-09-12T07:37:16.986Z,100533.89
2018-09-12T07:42:20.526Z,100539.34
2018-09-12T07:47:24.028Z,100538.03
2018-09-12T07:52:27.505Z,100542.33
2018-09-12T07:57:31.304Z,100543.84
2018-09-12T08:02:34.775Z,100544.03
2018-09-12T08:07:38.326Z,100543.70
2018-09-12T08:12:41.792Z,100548.86
2018-09-12T08:17:45.223Z,100545.00
2018-09-12T08:22:48.690Z,100547.40
2018-09-12T08:27:52.189Z,100545.59
2018-09-12T08:32:55.665Z,100546.60
2018-09-12T08:37:59.124Z,100541.84
2018-09-12T08:43:02.573Z,100542.88
2018-09-12T08:48:06.124Z,100530.83
2018-09-12T08:53:09.582Z,100533.43
2018-09-12T08:58:13.018Z,100525.58
2018-09-12T09:03:16.537Z,100523.98
2018-09-12T09:08:20.025Z,100524.52
2018-09-12T09:13:23.462Z,100506.21
2018-09-12T09:18:26.903Z,100507.64
2018-09-12T09:23:30.359Z,100511.49
2018-09-12T09:28:33.786Z,100517.03
2018-09-12T09:33:37.379Z,100502.76
2018-09-12T09:38:40.812Z,100512.72
2018-09-12T09:43:44.359Z,100513.50
2018-09-12T09:48:47.892Z,100507.23
2018-09-12T09:53:51.396Z,100516.55
2018-09-12T09:58:54.868Z,100518.48
2018-09-12T10:04:03.724Z,100509.52
2018-09-12T10:09:14.420Z,100501.80
2018-09-12T10:14:17.860Z,100490.09
2018-09-12T10:19:21.361Z,100486.80
2018-09-12T10:24:24.892Z,100489.88
2018-09-12T10:29:28.369Z,100502.77
2018-09-12T10:34:31.826Z,100499.20
2018-09-12T10:39:35.254Z,100480.55
2018-09-12T10:44:38.793Z,100472.49
2018-09-12T10:49:42.254Z,100471.73
2018-09-12T10:54:45.975Z,100467.09
2018-09-12T10:59:49.451Z,100467.44
2018-09-12T11:04:53.017Z,100467.94
2018-09-12T11:09:56.502Z,100456.63
2018-09-12T11:15:00.085Z,100448.14
2018-09-12T11:20:03.593Z,100452.20
2018-09-12T11:25:07.015Z,100449.37
2018-09-12T11:30:10.495Z,100441.88
2018-09-12T11:35:13.980Z,100431.16
2018-09-12T11:40:17.439Z,100434.72
2018-09-12T11:45:20.910Z,100428.71
2018-09-12T11:50:24.411Z,100423.53
2018-09-12T11:55:27.906Z,100424.88
2018-09-12T12:00:31.355Z,100415.55
2018-09-12T12:05:34.822Z,100406.20
2018-09-12T12:10:38.259Z,100406.30
2018-09-12T12:15:41.685Z,100406.80
2018-09-12T12:20:45.155Z,100398.07
2018-09-12T12:25:48.600Z,100391.03
2018-09-12T12:30:52.068Z,100378.24
2018-09-12T12:35:55.512Z,100383.39
2018-09-12T12:40:58.940Z,100380.45
2018-09-12T12:46:02.408Z,100358.17
2018-09-12T12:51:06.155Z,100356.45
2018-09-12T12:56:09.614Z,100345.98
2018-09-12T13:01:13.071Z,100352.41
2018-09-12T13:06:16.571Z,100347.13
2018-09-12T13:11:20.021Z,100336.02
2018-09-12T13:16:23.469Z,100328.73
2018-09-12T13:21:26.953Z,100322.11
2018-09-12T13:26:30.408Z,100325.69
2018-09-12T13:31:33.867Z,100322.30
2018-09-12T13:36:37.318Z,100320.62
2018-09-12T13:41:40.986Z,100320.39
2018-09-12T13:46:44.437Z,100316.34
2018-09-12T13:51:47.897Z,100308.05
2018-09-12T13:56:51.321Z,100299.30
2018-09-12T14:01:54.790Z,100299.95
2018-09-12T14:06:58.232Z,100305.02
2018-09-12T14:12:01.876Z,100300.62
2018-09-12T14:17:05.308Z,100301.11
2018-09-12T14:22:09.246Z,100294.45
2018-09-12T14:27:12.695Z,100291.75
2018-09-12T14:32:16.180Z,100268.89
2018-09-12T14:37:19.639Z,100285.59
2018-09-12T14:42:23.151Z,100284.96
2018-09-12T14:47:26.598Z,100278.19
2018-09-12T14:52:30.045Z,100274.13
2018-09-12T14:57:33.557Z,100262.19
2018-09-12T15:02:36.999Z,100263.27
2018-09-12T15:07:40.560Z,100256.70
2018-09-12T15:12:44.269Z,100251.78
2018-09-12T15:17:47.754Z,100259.77
2018-09-12T15:22:51.361Z,100247.48
2018-09-12T15:27:54.869Z,100245.89
2018-09-12T15:32:58.380Z,100251.13
2018-09-12T15:38:01.917Z,100252.84
2018-09-12T15:43:05.454Z,100252.70
2018-09-12T15:48:08.915Z,100247.13
2018-09-12T15:53:12.380Z,100241.67
2018-09-12T15:58:15.849Z,100240.53
2018-09-12T16:03:20.134Z,100244.16
2018-09-12T16:08:23.754Z,100244.97
2018-09-12T16:13:27.248Z,100245.63
2018-09-12T16:18:30.706Z,100242.42
2018-09-12T16:23:34.210Z,100240.56
2018-09-12T16:28:37.729Z,100239.75
2018-09-12T16:33:41.453Z,100243.18
2018-09-12T16:38:44.959Z,100235.33
2018-09-12T16:43:55.091Z,100235.69
2018-09-12T16:48:58.560Z,100232.66
2018-09-12T16:54:02.033Z,100228.27
2018-09-12T16:59:05.499Z,100227.00
2018-09-12T17:04:09.052Z,100229.86
2018-09-12T17:09:12.838Z,100231.06
2018-09-12T17:14:16.351Z,100232.42
2018-09-12T17:19:19.824Z,100233.42
2018-09-12T17:24:23.320Z,100242.66
2018-09-12T17:29:26.867Z,100250.05
2018-09-12T17:34:30.342Z,100259.05
2018-09-12T17:39:34.060Z,100263.11
2018-09-12T17:44:37.614Z,100258.29
2018-09-12T17:49:41.234Z,100271.70
2018-09-12T17:54:44.729Z,100291.34
2018-09-12T17:59:48.481Z,100295.55
2018-09-12T18:04:51.948Z,100323.74
2018-09-12T18:09:55.438Z,100337.91
2018-09-12T18:14:58.991Z,100356.80
2018-09-12T18:20:02.470Z,100376.64
2018-09-12T18:25:06.765Z,100407.80
2018-09-12T18:30:10.903Z,100418.44
2018-09-12T18:35:14.448Z,100426.89
2018-09-12T18:40:17.954Z,100446.77
2018-09-12T18:45:21.472Z,100456.11
2018-09-12T18:50:24.983Z,100471.64
2018-09-12T18:55:28.540Z,100466.16
2018-09-12T19:00:32.243Z,100476.56
2018-09-12T19:05:35.806Z,100489.73
2018-09-12T19:10:39.370Z,100491.95
2018-09-12T19:15:42.834Z,100495.78
2018-09-12T19:20:47.092Z,100498.37
2018-09-12T19:25:50.559Z,100505.90
2018-09-12T19:30:54.007Z,100506.02
2018-09-12T19:35:57.545Z,100513.81
2018-09-12T19:41:01.008Z,100527.12
2018-09-12T19:46:04.463Z,100536.02
2018-09-12T19:51:13.084Z,100548.10
2018-09-12T19:56:16.776Z,100554.02
2018-09-12T20:01:20.224Z,100558.59
2018-09-12T20:06:23.687Z,100559.31
2018-09-12T20:11:27.204Z,100566.39
2018-09-12T20:16:30.678Z,100574.26
2018-09-12T20:21:34.166Z,100577.60
2018-09-12T20:26:37.707Z,100593.35
2018-09-12T20:31:41.167Z,100598.67
2018-09-12T20:36:44.685Z,100602.59
2018-09-12T20:41:48.105Z,100607.15
2018-09-12T20:46:51.603Z,100617.63
2018-09-12T20:51:55.083Z,100619.13
2018-09-12T20:56:58.656Z,100615.55
2018-09-12T21:02:02.083Z,100618.13
2018-09-12T21:07:05.619Z,100614.07
2018-09-12T21:12:09.050Z,100615.56
2018-09-12T21:17:12.665Z,100623.33
2018-09-12T21:22:16.095Z,100635.77
2018-09-12T21:27:19.783Z,100636.49
2018-09-12T21:32:23.313Z,100640.56
2018-09-12T21:37:26.891Z,100641.05
2018-09-12T21:42:30.422Z,100641.32
2018-09-12T21:47:33.962Z,100641.81
2018-09-12T21:52:37.415Z,100645.12
2018-09-12T21:57:40.880Z,100644.89
2018-09-12T22:02:44.343Z,100642.55
2018-09-12T22:07:47.827Z,100655.86
2018-09-12T22:12:51.289Z,100655.37
2018-09-12T22:17:54.722Z,100651.67
2018-09-12T22:22:58.184Z,100645.52
2018-09-12T22:28:01.708Z,100645.12
2018-09-12T22:33:05.244Z,100645.25
2018-09-12T22:38:08.718Z,100647.33
2018-09-12T22:43:12.310Z,100651.53
2018-09-12T22:48:15.797Z,100659.30
2018-09-12T22:53:19.340Z,100661.27
2018-09-12T22:58:22.856Z,100651.66
2018-09-12T23:03:26.446Z,100664.34
2018-09-12T23:08:29.864Z,100668.54
2018-09-12T23:13:33.371Z,100667.64
2018-09-12T23:18:36.915Z,100663.34
2018-09-12T23:23:40.390Z,100658.92
2018-09-12T23:28:43.879Z,100652.64
2018-09-12T23:33:47.322Z,100658.16
2018-09-12T23:38:50.799Z,100665.82
2018-09-12T23:43:54.263Z,100655.70
2018-09-12T23:48:57.750Z,100654.48
2018-09-12T23:54:01.237Z,100657.30
2018-09-12T23:59:04.747Z,100652.86
